Pico da Bandeira, Brazil
Current Conditions -  °F | °C
As of 8:00 PM on Sunday 23 Nov 2014 (Local Time) from SBCP Reporting Station
Light Rain Light Rain  
Wind Chill: 77°   Ceiling: 1500
Heat Index: 78°   Visibility: 6mi
Dew Point: 75°   Wind: 5mph
Humidity: 94%   Direction: 240°WSW
Pressure: 29.94"   Gusts: NA
Location:  20.43°S, 41.87°W
Report Text: SBCP 232200Z 24004KT 9999 -RA BKN015 OVC090 25/24 Q1014
Loading
Personal Weather Stations






























Interactive Weather Map New forecast layout! Learn more

10-Day Weather Forecast

Advertisements
Track Severe Weather on mobile